Abraham Lincoln Capital Airport
KSPI : now visible

Aeroporto :











RITROVATECI SU...

 
LOGIN :

Iscrizione | Disclaimer

   EN    FR    IT 

 









Sommario :    VFR   VFR Marginale   IFR   IFR Intensivo   IFR Molto Intensivo
Visibilità : 
Base nubi : 
>= 8 km
>= 3000ft
5 / 8 km
1000 / 3000 ft
1500m / 5 km
500 / 1000 ft
800 / 1500m
200 / 500 ft
< 800m
< 200 ft
Simboli :   Temporali  Nebbia  Neve Forte  Precipitazioni Forti  Vento > 20 kt







- Altitudine del aeroporto : 598 ft
- Codice IATA : SPI


KSPI - Abraham Lincoln Capital

ULTIMO METAR :
  • 250352Z AUTO 09008KT 10SM CLR 18/13 A3014 RMK AO2 SLP204 T01830128

METARs OBSOLETI :
  • 250252Z AUTO 09005KT 10SM CLR 18/13 A3015 RMK AO2 SLP206 T01830133 53011
  • 250152Z 07007KT 10SM CLR 18/13 A3014 RMK AO2 SLP202 T01830133

TAF KSPI
Valido dal 25 a 00 ore il 26 a 00 ore UTC


242320Z 2500/2524 08007KT P6SM FEW250
FM251000 09005KT P6SM BKN250
FM251500 11009KT P6SM SCT050 BKN080
Nessun NOTAM noto per questo aeroporto.



MetMap, La meteo Aeronautica in un colpo d'occhio ! - Copyright ORBIFLY Dicembre 2007 - Disclaimer

ORBIFLY MET'MAP TEAM :

Programmazione e sviluppo : Alexandra Zaïnal
Concezione e sviluppo : Baudouin d'Aumeries
Co-Programmazione e sviluppo : Marc-Olivier Méhu
Supporto tecnico e logistico : Manuel Goepfert
Aiuto per la traduzione : Arnaldo La Scala

Contatto : metmap@orbifly.com




FONTI E CREDITI :

   NOAA       Earth
Advisory